Time;durP1;ratioP1;P1;durP2;ratioP2;P2;SDS_P1;SDS_P2;PMS_P1;PMS_P2;Temp;Humidity;BMP_temperature;BMP_pressure;BME280_temperature;BME280_humidity;BME280_pressure;Samples;Min_cycle;Max_cycle;Signal;HPM_P1;HPM_P2
2023/01/13 18:42:57;;;;;;;79.35;35.95;;;;;;;6.91;82.85;100006.94;4623849;22;9496620;-46
2023/01/13 18:45:27;;;;;;;92.50;38.13;;;;;;;6.90;82.81;100005.31;5005354;28;20435;-44
2023/01/13 18:47:56;;;;;;;34.63;15.15;;;;;;;6.90;82.94;99995.13;5001454;28;20040;-44
2023/01/13 18:50:23;;;;;;;18.23;9.55;;;;;;;6.89;82.97;100004.50;5003251;28;20108;-49
2023/01/13 18:52:50;;;;;;;23.52;8.13;;;;;;;6.89;83.07;99989.94;5008404;28;20053;-47
2023/01/13 18:55:19;;;;;;;25.27;9.02;;;;;;;6.88;83.08;99980.09;5006770;28;20037;-49
2023/01/13 18:57:46;;;;;;;25.55;8.27;;;;;;;6.89;83.10;99976.19;5005887;28;20061;-42
2023/01/13 19:00:16;;;;;;;16.48;7.45;;;;;;;6.87;83.12;99962.78;5007594;28;20037;-44
2023/01/13 19:02:42;;;;;;;20.50;7.05;;;;;;;6.88;83.25;99969.09;5006607;28;20049;-43
2023/01/13 19:05:10;;;;;;;19.70;7.78;;;;;;;6.88;83.30;99966.34;5003034;28;20038;-44
2023/01/13 19:07:37;;;;;;;19.13;7.35;;;;;;;6.87;83.42;99961.97;5004253;28;20046;-45
2023/01/13 19:10:05;;;;;;;16.65;6.53;;;;;;;6.87;83.37;99957.28;5010450;28;20388;-47
2023/01/13 19:12:32;;;;;;;20.58;8.15;;;;;;;6.88;83.38;99941.59;5001753;28;20061;-45
2023/01/13 19:15:00;;;;;;;22.17;8.00;;;;;;;6.89;83.47;99940.41;5006320;28;20089;-45
2023/01/13 19:17:33;;;;;;;16.23;5.53;;;;;;;6.89;83.40;99927.47;5006773;28;20526;-47
2023/01/13 19:20:00;;;;;;;14.27;5.65;;;;;;;6.90;83.40;99922.78;5005856;28;20038;-51
2023/01/13 19:22:33;;;;;;;20.23;6.80;;;;;;;6.92;83.40;99915.78;5007179;28;20402;-45
2023/01/13 19:25:01;;;;;;;24.75;8.90;;;;;;;6.92;83.35;99907.53;5005337;28;20484;-45
2023/01/13 19:27:28;;;;;;;15.77;5.53;;;;;;;6.93;83.28;99900.09;5007011;28;20140;-51
2023/01/13 19:30:01;;;;;;;24.33;6.95;;;;;;;6.93;82.91;99898.16;5008703;28;20145;-48
2023/01/13 19:32:37;;;;;;;19.17;5.95;;;;;;;6.92;83.50;99876.47;5007457;28;20116;-50
2023/01/13 19:35:07;;;;;;;10.15;4.88;;;;;;;6.93;83.44;99867.06;5010305;28;20053;-47
2023/01/13 19:37:35;;;;;;;14.75;5.88;;;;;;;6.94;83.40;99863.16;5002861;28;20057;-45
2023/01/13 19:40:07;;;;;;;16.83;6.13;;;;;;;6.95;83.42;99856.53;5024267;28;20057;-45
2023/01/13 19:45:27;;;;;;;19.35;6.55;;;;;;;6.95;83.36;99829.81;5008159;28;19951;-45
2023/01/13 19:47:55;;;;;;;16.17;5.18;;;;;;;6.96;83.34;99811.38;5002185;28;20476;-43
2023/01/13 19:50:23;;;;;;;15.73;5.05;;;;;;;6.95;83.63;99810.56;4999778;28;20046;-46
2023/01/13 19:52:50;;;;;;;22.17;5.10;;;;;;;6.94;83.59;99808.94;4999545;28;20483;-45
2023/01/13 19:55:18;;;;;;;17.60;5.38;;;;;;;6.94;83.62;99802.63;5002416;28;20050;-44
2023/01/13 19:57:45;;;;;;;18.25;6.10;;;;;;;6.93;84.02;99796.34;5007093;28;20054;-44
2023/01/13 20:00:16;;;;;;;21.75;6.75;;;;;;;6.93;83.76;99779.03;5004195;28;20054;-46
2023/01/13 20:02:47;;;;;;;22.70;7.78;;;;;;;6.91;84.16;99771.09;5003024;28;20056;-45
2023/01/13 20:05:24;;;;;;;;;;;;;;;6.89;84.17;99762.41;5007751;28;20077;-44
2023/01/13 20:07:52;;;;;;;21.73;7.30;;;;;;;6.88;84.11;99754.50;4998167;28;19932;-45
2023/01/13 20:10:20;;;;;;;23.88;5.85;;;;;;;6.87;84.33;99748.19;5006869;28;20053;-44
2023/01/13 20:12:47;;;;;;;18.38;6.28;;;;;;;6.88;84.27;99740.75;4997173;28;20060;-44
2023/01/13 20:15:14;;;;;;;27.15;9.18;;;;;;;6.89;84.63;99745.88;5001880;28;20046;-46
2023/01/13 20:17:41;;;;;;;14.30;5.70;;;;;;;6.89;84.73;99723.06;5003821;28;20129;-44
2023/01/13 20:20:09;;;;;;;22.85;6.95;;;;;;;6.88;84.63;99716.78;5003676;28;20617;-45
2023/01/13 20:22:37;;;;;;;17.35;6.47;;;;;;;6.88;84.85;99722.28;4996621;28;20100;-47
2023/01/13 20:25:05;;;;;;;19.23;7.35;;;;;;;6.90;84.92;99713.69;5000450;28;20054;-45
2023/01/13 20:27:31;;;;;;;15.90;8.43;;;;;;;6.90;84.98;99702.66;5003376;28;20049;-44
2023/01/13 20:29:58;;;;;;;10.80;5.40;;;;;;;6.91;85.23;99698.78;5000105;28;20418;-43
2023/01/13 20:32:25;;;;;;;18.33;6.10;;;;;;;6.89;85.25;99684.56;5004606;28;20117;-43
2023/01/13 20:34:52;;;;;;;15.02;6.45;;;;;;;6.89;85.35;99679.03;5001496;28;20480;-44
2023/01/13 20:37:18;;;;;;;22.95;6.15;;;;;;;6.87;85.62;99665.66;5001293;28;20055;-43
2023/01/13 20:39:46;;;;;;;18.52;7.57;;;;;;;6.87;85.71;99662.09;5009445;28;20082;-44
2023/01/13 20:42:38;;;;;;;23.58;10.15;;;;;;;6.87;85.96;99664.84;5012713;28;20101;-44
2023/01/13 20:45:05;;;;;;;;;;;;;;;6.87;86.20;99659.34;5015054;28;20458;-44
2023/01/13 20:47:32;;;;;;;14.95;5.47;;;;;;;6.88;86.02;99637.00;5020197;28;20398;-44
2023/01/13 20:49:58;;;;;;;17.60;6.00;;;;;;;6.89;86.30;99646.03;5023599;28;20053;-44
2023/01/13 20:52:25;;;;;;;13.15;5.65;;;;;;;6.91;86.33;99632.75;5024781;28;20136;-43
2023/01/13 20:54:53;;;;;;;21.20;7.18;;;;;;;6.93;86.62;99638.69;5023858;28;20056;-44
2023/01/13 20:57:21;;;;;;;14.98;4.82;;;;;;;6.95;86.80;99639.16;5024156;28;20041;-49
2023/01/13 20:59:47;;;;;;;17.23;6.93;;;;;;;6.97;86.89;99632.16;5021371;28;20132;-47
2023/01/13 21:02:15;;;;;;;19.85;6.68;;;;;;;6.99;87.32;99623.56;5022248;28;20041;-45
2023/01/13 21:04:43;;;;;;;23.90;6.82;;;;;;;7.01;87.44;99615.75;5023501;28;20046;-48
2023/01/13 21:07:10;;;;;;;30.10;8.52;;;;;;;7.03;87.51;99616.19;5023925;28;20042;-44
2023/01/13 21:09:37;;;;;;;18.88;6.18;;;;;;;7.04;87.76;99604.06;5025644;28;20107;-46
2023/01/13 21:20:20;;;;;;;17.10;6.10;;;;;;;7.08;88.43;99591.97;5022615;28;20041;-44
2023/01/13 21:22:48;;;;;;;16.92;3.30;;;;;;;7.09;88.78;99584.53;5023918;28;20462;-43
2023/01/13 21:25:16;;;;;;;6.40;3.47;;;;;;;7.15;89.41;99578.41;5019613;28;20479;-44
2023/01/13 21:27:43;;;;;;;13.75;3.50;;;;;;;7.22;89.39;99567.63;5024600;28;20045;-44
2023/01/13 21:30:14;;;;;;;14.50;4.00;;;;;;;7.29;89.43;99554.03;5006471;28;20511;-43
2023/01/13 21:32:42;;;;;;;10.82;4.05;;;;;;;7.33;89.45;99554.91;5022606;28;20140;-43
2023/01/13 21:35:10;;;;;;;12.48;4.93;;;;;;;7.39;89.63;99560.97;5023525;28;20486;-43
2023/01/13 21:37:39;;;;;;;6.28;3.03;;;;;;;7.42;89.70;99543.75;5001073;28;20811;-43
2023/01/13 21:40:09;;;;;;;9.52;3.08;;;;;;;7.47;89.76;99534.44;5018746;28;20060;-43
2023/01/13 21:48:07;;;;;;;3.05;1.33;;;;;;;7.80;90.90;99499.88;4995171;28;20046;-44
2023/01/13 21:50:36;;;;;;;3.33;0.73;;;;;;;7.90;91.04;99493.81;5001944;28;20042;-43
2023/01/13 21:53:03;;;;;;;2.22;1.10;;;;;;;7.97;90.88;99477.44;4998029;28;20042;-46
2023/01/13 21:55:31;;;;;;;2.03;0.98;;;;;;;8.03;91.02;99474.41;5003350;28;20052;-44
2023/01/13 21:58:12;;;;;;;3.60;1.25;;;;;;;8.07;91.33;99461.53;5005798;28;20050;-44
2023/01/13 22:00:42;;;;;;;3.33;1.33;;;;;;;8.09;91.45;99456.44;5004976;28;20525;-51
2023/01/13 22:03:11;;;;;;;5.60;1.52;;;;;;;8.12;91.77;99455.72;5004345;28;20077;-49
2023/01/13 22:05:38;;;;;;;4.07;1.13;;;;;;;8.14;92.01;99450.66;5007332;28;20037;-48
2023/01/13 22:08:06;;;;;;;2.40;1.20;;;;;;;8.16;92.11;99442.81;4999837;28;20141;-50
2023/01/13 22:10:33;;;;;;;2.72;1.38;;;;;;;8.19;92.13;99448.41;5003814;28;20496;-45
2023/01/13 22:14:04;;;;;;;4.25;1.80;;;;;;;8.20;92.51;99421.66;5000201;28;20470;-43
2023/01/13 22:15:47;;;;;;;4.95;1.75;;;;;;;8.20;92.62;99430.72;5003924;28;20057;-47
2023/01/13 22:18:16;;;;;;;3.55;1.83;;;;;;;8.20;92.77;99424.41;5000125;28;20049;-45
2023/01/13 22:20:43;;;;;;;4.93;1.42;;;;;;;8.19;92.79;99417.28;5003324;28;20046;-42
2023/01/13 22:23:10;;;;;;;3.58;1.63;;;;;;;8.20;93.14;99413.38;5000597;28;20257;-42
2023/01/13 22:25:36;;;;;;;7.88;3.38;;;;;;;8.21;93.15;99417.72;5006383;28;20042;-46
2023/01/13 22:28:04;;;;;;;3.63;1.38;;;;;;;8.24;93.38;99408.72;5005618;28;20053;-43
2023/01/13 22:30:32;;;;;;;2.63;1.70;;;;;;;8.33;93.60;99409.34;4999913;28;20418;-43
2023/01/13 22:32:59;;;;;;;3.80;0.80;;;;;;;8.36;93.42;99389.31;5005935;28;20084;-45
2023/01/13 22:35:26;;;;;;;1.88;1.00;;;;;;;8.38;93.59;99382.28;5001627;28;20471;-43
2023/01/13 22:37:52;;;;;;;2.33;1.20;;;;;;;8.40;93.73;99382.72;5001831;28;20399;-43
2023/01/13 22:40:19;;;;;;;1.70;0.60;;;;;;;8.43;93.83;99370.97;5002155;28;20053;-43
2023/01/13 22:42:46;;;;;;;1.42;0.77;;;;;;;8.47;93.97;99357.25;5020704;28;20064;-45
2023/01/13 22:45:13;;;;;;;1.75;1.20;;;;;;;8.49;94.07;99363.19;5022632;28;20042;-50
2023/01/13 22:47:40;;;;;;;2.55;1.08;;;;;;;8.50;94.16;99348.22;5017794;28;20119;-44
2023/01/13 22:50:08;;;;;;;2.63;0.90;;;;;;;8.50;94.42;99345.47;5022257;28;20055;-43
2023/01/13 22:52:35;;;;;;;1.02;0.47;;;;;;;8.50;94.46;99339.94;5022377;28;20048;-43
2023/01/13 22:55:03;;;;;;;1.20;0.60;;;;;;;8.48;94.68;99326.53;5023163;28;20704;-48
2023/01/13 22:57:31;;;;;;;4.13;2.13;;;;;;;8.47;94.83;99324.16;5019689;28;20050;-43
2023/01/13 23:00:13;;;;;;;4.75;2.08;;;;;;;8.44;95.18;99316.59;5021957;28;20673;-45
2023/01/13 23:02:40;;;;;;;5.68;3.42;;;;;;;8.44;95.18;99302.81;5019114;28;20426;-48
2023/01/13 23:05:07;;;;;;;4.70;2.90;;;;;;;8.41;95.21;99293.31;5022504;28;20049;-44
2023/01/13 23:07:34;;;;;;;6.57;3.17;;;;;;;8.38;95.52;99296.00;5025896;28;20041;-43
2023/01/13 23:10:02;;;;;;;2.65;2.40;;;;;;;8.33;95.75;99279.75;5023623;28;20052;-49
2023/01/13 23:12:29;;;;;;;2.72;2.45;;;;;;;8.29;95.82;99267.84;5026405;28;20042;-43
2023/01/13 23:14:56;;;;;;;4.30;2.13;;;;;;;8.24;96.04;99263.41;5025577;28;20478;-42
2023/01/13 23:17:23;;;;;;;6.38;2.53;;;;;;;8.22;96.32;99251.16;5028604;28;20136;-43
2023/01/13 23:19:49;;;;;;;5.60;2.40;;;;;;;8.18;96.57;99244.78;5028515;28;20128;-45
2023/01/13 23:22:16;;;;;;;3.97;2.75;;;;;;;8.14;96.71;99235.63;5025004;28;20064;-43
2023/01/13 23:24:43;;;;;;;5.65;2.95;;;;;;;8.13;96.93;99229.31;5040351;28;20407;-44
2023/01/13 23:27:10;;;;;;;4.00;2.15;;;;;;;8.09;97.26;99209.19;5028303;28;20038;-43
2023/01/13 23:29:36;;;;;;;5.60;1.98;;;;;;;8.09;97.43;99224.91;5027820;28;20052;-45
2023/01/13 23:32:03;;;;;;;4.40;2.47;;;;;;;8.08;97.68;99201.25;5027649;28;20049;-45
2023/01/13 23:34:30;;;;;;;3.97;2.38;;;;;;;8.05;97.62;99191.00;5028480;28;20042;-44
2023/01/13 23:36:57;;;;;;;6.60;3.03;;;;;;;8.04;97.93;99183.88;5027979;28;20050;-43
2023/01/13 23:39:24;;;;;;;4.10;1.92;;;;;;;8.05;98.14;99174.47;5028111;28;20077;-43
2023/01/13 23:41:50;;;;;;;2.85;1.83;;;;;;;8.02;98.34;99176.00;5032948;28;20064;-43
2023/01/13 23:44:18;;;;;;;2.47;1.85;;;;;;;8.02;98.43;99158.66;5027975;28;20471;-43
2023/01/13 23:46:46;;;;;;;4.57;3.00;;;;;;;8.00;98.57;99156.25;5027832;28;20595;-48
2023/01/13 23:49:12;;;;;;;5.60;2.13;;;;;;;8.01;98.64;99149.56;5022094;28;20045;-42
2023/01/13 23:51:39;;;;;;;3.83;2.30;;;;;;;8.00;98.80;99134.19;5020318;28;20056;-42
2023/01/13 23:54:06;;;;;;;5.13;2.90;;;;;;;8.02;99.16;99125.56;5027608;28;20049;-50
2023/01/13 23:56:37;;;;;;;3.65;2.05;;;;;;;8.02;99.17;99131.09;5027796;28;20496;-44
2023/01/13 23:59:05;;;;;;;6.03;3.08;;;;;;;8.02;99.22;99109.03;5038702;28;20041;-42
